createdAt,value
2022-09-03T00:02:10.712Z,99298.03
2022-09-03T00:04:46.747Z,99301.44
2022-09-03T00:07:21.408Z,99294.25
2022-09-03T00:09:52.886Z,99299.31
2022-09-03T00:14:57.273Z,99297.69
2022-09-03T00:17:28.580Z,99302.50
2022-09-03T00:22:34.732Z,99298.69
2022-09-03T00:25:07.255Z,99297.41
2022-09-03T00:27:40.383Z,99300.34
2022-09-03T00:30:14.596Z,99301.66
2022-09-03T00:32:48.250Z,99304.56
2022-09-03T00:35:23.181Z,99307.22
2022-09-03T00:37:52.781Z,99303.78
2022-09-03T00:45:54.893Z,99306.66
2022-09-03T00:48:28.354Z,99302.63
2022-09-03T00:51:25.894Z,99302.81
2022-09-03T00:56:41.788Z,99304.28
2022-09-03T00:59:20.634Z,99303.19
2022-09-03T01:01:59.192Z,99298.41
2022-09-03T01:04:35.619Z,99303.91
2022-09-03T01:12:35.176Z,99297.16
2022-09-03T01:15:12.348Z,99301.09
2022-09-03T01:18:01.988Z,99298.09
2022-09-03T01:20:39.182Z,99298.59
2022-09-03T01:23:37.074Z,99294.16
2022-09-03T01:29:05.634Z,99299.72
2022-09-03T01:31:40.275Z,99292.03
2022-09-03T01:36:56.991Z,99307.16
2022-09-03T01:39:34.368Z,99302.53
2022-09-03T01:42:20.514Z,99299.81
2022-09-03T01:47:51.440Z,99300.31
2022-09-03T01:53:09.527Z,99298.47
2022-09-03T01:58:22.721Z,99293.78
2022-09-03T02:00:59.230Z,99288.97
2022-09-03T02:03:36.484Z,99287.94
2022-09-03T02:06:09.409Z,99288.28
2022-09-03T02:11:08.077Z,99285.53
2022-09-03T02:13:40.048Z,99298.34
2022-09-03T02:16:15.257Z,99303.31
2022-09-03T02:18:47.015Z,99296.81
2022-09-03T02:21:17.893Z,99297.88
2022-09-03T02:23:45.735Z,99302.78
2022-09-03T02:26:17.627Z,99301.56
2022-09-03T02:28:46.103Z,99304.72
2022-09-03T02:31:15.335Z,99302.97
2022-09-03T02:33:47.245Z,99303.13
2022-09-03T02:36:18.003Z,99299.63
2022-09-03T02:38:47.143Z,99303.88
2022-09-03T02:43:47.120Z,99302.75
2022-09-03T02:46:21.897Z,99304.59
2022-09-03T02:48:49.858Z,99302.22
2022-09-03T02:51:17.698Z,99294.44
2022-09-03T02:56:13.991Z,99290.56
2022-09-03T02:58:42.037Z,99291.63
2022-09-03T03:01:09.913Z,99294.50
2022-09-03T03:03:39.092Z,99289.28
2022-09-03T03:06:07.863Z,99296.59
2022-09-03T03:08:35.732Z,99293.16
2022-09-03T03:11:03.669Z,99299.25
2022-09-03T03:13:32.776Z,99293.91
2022-09-03T03:16:01.527Z,99295.44
2022-09-03T03:23:33.625Z,99282.69
2022-09-03T03:26:02.766Z,99290.94
2022-09-03T03:28:34.078Z,99292.84
2022-09-03T03:31:07.037Z,99290.69
2022-09-03T03:33:36.442Z,99290.19
2022-09-03T03:36:10.733Z,99297.16
2022-09-03T03:41:11.529Z,99291.31
2022-09-03T03:43:39.391Z,99286.19
2022-09-03T03:46:07.705Z,99293.19
2022-09-03T03:48:35.700Z,99301.38
2022-09-03T03:51:06.804Z,99304.84
2022-09-03T03:56:07.455Z,99297.72
2022-09-03T03:58:35.900Z,99295.38
2022-09-03T04:01:07.939Z,99295.13
2022-09-03T04:03:36.743Z,99303.94
2022-09-03T04:06:05.847Z,99297.38
2022-09-03T04:08:37.824Z,99301.94
2022-09-03T04:11:07.518Z,99296.06
2022-09-03T04:13:37.597Z,99300.94
2022-09-03T04:16:08.071Z,99295.16
2022-09-03T04:18:36.692Z,99297.06
2022-09-03T04:21:07.335Z,99291.75
2022-09-03T04:23:38.154Z,99292.75
2022-09-03T04:26:06.498Z,99289.94
2022-09-03T04:31:03.623Z,99288.31
2022-09-03T04:33:31.937Z,99280.13
2022-09-03T04:36:06.491Z,99293.38
2022-09-03T04:38:36.724Z,99287.81
2022-09-03T04:41:05.123Z,99276.97
2022-09-03T04:43:33.786Z,99283.38
2022-09-03T04:46:02.965Z,99288.09
2022-09-03T04:48:32.641Z,99289.19
2022-09-03T04:51:05.400Z,99290.53
2022-09-03T04:53:34.322Z,99290.22
2022-09-03T04:56:04.526Z,99299.44
2022-09-03T04:58:32.512Z,99291.25
2022-09-03T05:01:09.315Z,99306.72
2022-09-03T05:03:38.569Z,99301.75
2022-09-03T05:06:07.985Z,99314.47
2022-09-03T05:08:36.859Z,99306.06
2022-09-03T05:11:07.619Z,99307.75
2022-09-03T05:13:37.069Z,99305.59
2022-09-03T05:16:06.588Z,99310.91
2022-09-03T05:18:35.795Z,99309.28
2022-09-03T05:21:05.479Z,99297.59
2022-09-03T05:26:10.984Z,99309.88
2022-09-03T05:28:40.642Z,99306.97
2022-09-03T05:31:10.422Z,99301.94
2022-09-03T05:33:40.165Z,99307.69
2022-09-03T05:36:10.415Z,99302.69
2022-09-03T05:38:38.458Z,99305.19
2022-09-03T05:41:09.698Z,99307.56
2022-09-03T05:43:38.310Z,99297.84
2022-09-03T05:46:07.768Z,99304.78
2022-09-03T05:48:37.671Z,99309.09
2022-09-03T05:51:08.566Z,99313.38
2022-09-03T05:53:38.659Z,99307.09
2022-09-03T05:56:10.899Z,99313.47
2022-09-03T05:58:41.389Z,99310.06
2022-09-03T06:01:14.387Z,99314.81
2022-09-03T06:03:43.384Z,99313.84
2022-09-03T06:08:42.445Z,99315.97
2022-09-03T06:11:12.690Z,99308.25
2022-09-03T06:13:40.566Z,99298.53
2022-09-03T06:16:09.211Z,99306.56
2022-09-03T06:18:37.276Z,99311.38
2022-09-03T06:21:07.478Z,99302.91
2022-09-03T06:23:36.482Z,99313.84
2022-09-03T06:26:06.159Z,99309.13
2022-09-03T06:28:37.882Z,99314.72
2022-09-03T06:31:07.722Z,99306.00
2022-09-03T06:33:38.125Z,99312.72
2022-09-03T06:36:09.013Z,99313.97
2022-09-03T06:38:38.820Z,99313.97
2022-09-03T06:41:08.530Z,99310.22
2022-09-03T06:43:39.800Z,99309.44
2022-09-03T06:46:09.468Z,99311.31
2022-09-03T06:48:38.743Z,99315.59
2022-09-03T06:51:09.063Z,99306.00
2022-09-03T06:56:07.984Z,99307.09
2022-09-03T06:58:38.839Z,99306.91
2022-09-03T07:01:08.463Z,99304.25
2022-09-03T07:03:37.099Z,99299.47
2022-09-03T07:06:06.916Z,99296.56
2022-09-03T07:11:09.022Z,99300.00
2022-09-03T07:16:10.124Z,99303.41
2022-09-03T07:18:38.626Z,99309.25
2022-09-03T07:21:08.861Z,99313.47
2022-09-03T07:23:38.751Z,99298.47
2022-09-03T07:26:08.493Z,99300.41
2022-09-03T07:28:39.603Z,99293.69
2022-09-03T07:31:10.708Z,99292.63
2022-09-03T07:33:39.300Z,99297.22
2022-09-03T07:36:10.631Z,99293.84
2022-09-03T07:38:38.820Z,99298.25
2022-09-03T07:41:08.447Z,99298.88
2022-09-03T07:43:40.527Z,99300.31
2022-09-03T07:46:08.581Z,99292.63
2022-09-03T07:51:05.760Z,99286.88
2022-09-03T07:56:07.654Z,99295.34
2022-09-03T07:58:36.665Z,99302.94
2022-09-03T08:01:11.165Z,99307.63
2022-09-03T08:03:41.401Z,99301.00
2022-09-03T08:06:11.780Z,99289.50
2022-09-03T08:08:40.444Z,99298.13
2022-09-03T08:11:11.061Z,99296.38
2022-09-03T08:16:10.790Z,99300.94
2022-09-03T08:18:40.788Z,99299.03
2022-09-03T08:21:10.634Z,99300.31
2022-09-03T08:23:39.244Z,99307.88
2022-09-03T08:26:07.771Z,99291.63
2022-09-03T08:28:36.396Z,99291.16
2022-09-03T08:31:10.161Z,99295.56
2022-09-03T08:33:39.573Z,99300.63
2022-09-03T08:36:10.209Z,99297.59
2022-09-03T08:38:38.276Z,99300.91
2022-09-03T08:41:08.606Z,99302.28
2022-09-03T08:43:50.503Z,99307.16
2022-09-03T08:46:18.440Z,99309.63
2022-09-03T08:48:48.775Z,99307.47
2022-09-03T08:51:18.805Z,99311.81
2022-09-03T08:53:50.554Z,99313.88
2022-09-03T08:56:25.732Z,99311.28
2022-09-03T08:58:53.595Z,99306.91
2022-09-03T09:01:32.958Z,99308.97
2022-09-03T09:04:11.965Z,99300.63
2022-09-03T09:06:47.319Z,99301.44
2022-09-03T09:09:28.401Z,99302.06
2022-09-03T09:12:11.414Z,99300.16
2022-09-03T09:14:52.039Z,99296.34
2022-09-03T09:17:34.349Z,99289.72
2022-09-03T09:20:10.934Z,99295.91
2022-09-03T09:22:42.557Z,99301.47
2022-09-03T09:25:20.501Z,99313.38
2022-09-03T09:27:53.165Z,99301.84
2022-09-03T09:30:21.094Z,99298.41
2022-09-03T09:32:48.887Z,99293.88
2022-09-03T09:35:19.398Z,99290.88
2022-09-03T09:40:31.303Z,99281.16
2022-09-03T09:43:11.079Z,99283.56
2022-09-03T09:45:41.419Z,99284.69
2022-09-03T09:48:21.236Z,99271.66
2022-09-03T09:50:50.589Z,99275.75
2022-09-03T09:53:21.791Z,99277.22
2022-09-03T09:55:52.118Z,99269.50
2022-09-03T09:58:22.274Z,99273.41
2022-09-03T10:00:59.774Z,99269.72
2022-09-03T10:03:29.985Z,99255.41
2022-09-03T10:06:26.031Z,99264.50
2022-09-03T10:08:55.487Z,99262.16
2022-09-03T10:11:27.557Z,99265.75
2022-09-03T10:13:56.915Z,99260.28
2022-09-03T10:16:28.599Z,99255.06
2022-09-03T10:19:06.374Z,99263.50
2022-09-03T10:21:42.813Z,99260.56
2022-09-03T10:24:32.217Z,99256.75
2022-09-03T10:27:00.038Z,99253.69
2022-09-03T10:29:30.341Z,99258.97
2022-09-03T10:32:12.333Z,99245.19
2022-09-03T10:34:49.659Z,99245.22
2022-09-03T10:37:27.279Z,99244.09
2022-09-03T10:40:17.913Z,99254.38
2022-09-03T10:42:55.657Z,99237.47
2022-09-03T10:45:35.205Z,99244.19
2022-09-03T10:48:25.781Z,99243.53
2022-09-03T10:50:57.184Z,99244.91
2022-09-03T10:56:14.740Z,99242.63
2022-09-03T10:58:56.050Z,99241.94
2022-09-03T11:01:31.686Z,99238.34
2022-09-03T11:04:16.648Z,99244.09
2022-09-03T11:06:53.088Z,99239.41
2022-09-03T11:09:29.155Z,99242.44
2022-09-03T11:12:00.820Z,99246.41
2022-09-03T11:14:37.520Z,99243.28
2022-09-03T11:17:11.761Z,99234.59
2022-09-03T11:19:51.136Z,99226.34
2022-09-03T11:22:20.902Z,99227.91
2022-09-03T11:24:54.813Z,99212.31
2022-09-03T11:27:33.780Z,99200.66
2022-09-03T11:30:07.142Z,99195.13
2022-09-03T11:32:49.849Z,99191.22
2022-09-03T11:35:31.445Z,99192.59
2022-09-03T11:38:01.709Z,99186.41
2022-09-03T11:40:39.191Z,99183.66
2022-09-03T11:43:11.552Z,99186.22
2022-09-03T11:45:40.562Z,99186.53
2022-09-03T11:48:38.937Z,99184.72
2022-09-03T11:51:19.708Z,99185.41
2022-09-03T11:53:56.657Z,99190.22
2022-09-03T11:56:26.648Z,99188.72
2022-09-03T11:59:19.724Z,99181.66
2022-09-03T12:01:53.347Z,99175.84
2022-09-03T12:04:25.794Z,99183.75
2022-09-03T12:07:13.561Z,99185.56
2022-09-03T12:10:13.239Z,99185.16
2022-09-03T12:12:58.314Z,99183.81
2022-09-03T12:15:42.144Z,99175.22
2022-09-03T12:18:22.748Z,99184.81
2022-09-03T12:21:02.745Z,99178.91
2022-09-03T12:23:33.452Z,99186.06
2022-09-03T12:26:05.840Z,99181.91
2022-09-03T12:28:38.122Z,99200.16
2022-09-03T12:31:21.140Z,99201.53
2022-09-03T12:33:51.473Z,99203.53
2022-09-03T12:36:19.346Z,99200.22
2022-09-03T12:39:10.446Z,99200.38
2022-09-03T12:41:35.915Z,99198.28
2022-09-03T12:44:05.765Z,99194.09
2022-09-03T12:46:35.082Z,99196.75
2022-09-03T12:52:04.617Z,99205.47
2022-09-03T12:54:34.046Z,99193.16
2022-09-03T12:57:02.516Z,99206.50
2022-09-03T12:59:36.738Z,99210.06
2022-09-03T13:02:14.550Z,99209.25
2022-09-03T13:04:43.897Z,99205.34
2022-09-03T13:07:22.546Z,99207.69
2022-09-03T13:09:51.163Z,99204.56
2022-09-03T13:12:24.514Z,99202.91
2022-09-03T13:14:53.859Z,99195.69
2022-09-03T13:20:24.739Z,99202.56
2022-09-03T13:23:11.946Z,99201.34
2022-09-03T13:25:53.049Z,99199.31
2022-09-03T13:28:35.625Z,99192.28
2022-09-03T13:31:12.278Z,99194.53
2022-09-03T13:33:44.633Z,99190.13
2022-09-03T13:36:18.944Z,99189.53
2022-09-03T13:38:52.937Z,99190.94
2022-09-03T13:41:36.517Z,99180.78
2022-09-03T13:44:09.298Z,99183.41
2022-09-03T13:46:46.468Z,99182.72
2022-09-03T13:49:46.461Z,99186.97
2022-09-03T13:52:22.484Z,99185.53
2022-09-03T13:54:57.351Z,99179.78
2022-09-03T13:57:35.106Z,99175.63
2022-09-03T14:00:07.389Z,99178.06
2022-09-03T14:02:47.938Z,99179.94
2022-09-03T14:05:25.082Z,99181.91
2022-09-03T14:08:08.967Z,99186.59
2022-09-03T14:10:56.998Z,99188.47
2022-09-03T14:13:33.293Z,99184.19
2022-09-03T14:16:08.350Z,99187.38
2022-09-03T14:18:51.534Z,99182.34
2022-09-03T14:21:24.740Z,99186.00
2022-09-03T14:24:01.332Z,99178.66
2022-09-03T14:26:39.249Z,99176.22
2022-09-03T14:29:16.916Z,99180.59
2022-09-03T14:35:01.342Z,99177.53
2022-09-03T14:40:35.521Z,99186.19
2022-09-03T14:46:05.739Z,99173.25
2022-09-03T14:48:50.067Z,99173.78
2022-09-03T14:51:33.019Z,99167.19
2022-09-03T14:57:12.716Z,99164.31
2022-09-03T15:00:06.362Z,99149.91
2022-09-03T15:09:12.174Z,99150.75
2022-09-03T15:14:25.406Z,99150.72
2022-09-03T15:17:00.939Z,99155.53
2022-09-03T15:22:35.772Z,99163.69
2022-09-03T15:28:00.284Z,99164.78
2022-09-03T15:33:17.278Z,99160.53
2022-09-03T15:36:01.427Z,99171.72
2022-09-03T15:38:41.354Z,99158.06
2022-09-03T15:41:18.727Z,99170.66
2022-09-03T15:49:18.410Z,99172.78
2022-09-03T15:54:57.873Z,99175.97
2022-09-03T15:57:33.925Z,99174.94
2022-09-03T16:00:07.470Z,99180.88
2022-09-03T16:02:43.576Z,99189.94
2022-09-03T16:05:18.276Z,99174.34
2022-09-03T16:16:26.299Z,99189.34
2022-09-03T16:19:02.777Z,99192.97
2022-09-03T16:21:38.768Z,99195.28
2022-09-03T16:24:14.200Z,99182.00
2022-09-03T16:26:49.320Z,99190.66
2022-09-03T16:29:20.239Z,99185.28
2022-09-03T16:32:02.596Z,99182.94
2022-09-03T16:34:40.879Z,99185.19
2022-09-03T16:37:19.337Z,99183.34
2022-09-03T16:42:32.368Z,99193.31
2022-09-03T16:45:13.158Z,99195.88
2022-09-03T16:47:59.385Z,99203.09
2022-09-03T16:50:41.764Z,99193.31
2022-09-03T16:53:15.755Z,99197.53
2022-09-03T16:56:19.412Z,99208.19
2022-09-03T16:59:00.619Z,99207.16
2022-09-03T17:01:52.369Z,99204.44
2022-09-03T17:04:47.185Z,99214.31
2022-09-03T17:07:27.916Z,99208.53
2022-09-03T17:10:04.286Z,99210.78
2022-09-03T17:12:39.537Z,99208.88
2022-09-03T17:15:20.551Z,99211.50
2022-09-03T17:18:04.419Z,99215.16
2022-09-03T17:20:49.638Z,99212.94
2022-09-03T17:23:40.831Z,99203.75
2022-09-03T17:26:13.538Z,99214.06
2022-09-03T17:28:56.237Z,99211.69
2022-09-03T17:31:34.441Z,99217.53
2022-09-03T17:34:11.135Z,99215.47
2022-09-03T17:36:39.890Z,99222.41
2022-09-03T17:39:40.712Z,99216.66
2022-09-03T17:42:20.514Z,99230.13
2022-09-03T17:45:01.232Z,99231.06
2022-09-03T17:47:58.489Z,99229.59
2022-09-03T17:50:33.111Z,99241.72
2022-09-03T17:53:03.984Z,99235.53
2022-09-03T17:55:36.366Z,99249.09
2022-09-03T17:58:12.780Z,99262.16
2022-09-03T18:00:47.246Z,99268.47
2022-09-03T18:03:21.612Z,99267.31
2022-09-03T18:06:01.109Z,99282.31
2022-09-03T18:08:37.637Z,99287.50
2022-09-03T18:11:12.389Z,99295.25
2022-09-03T18:13:49.417Z,99295.19
2022-09-03T18:16:25.189Z,99302.97
2022-09-03T18:18:54.529Z,99304.66
2022-09-03T18:21:45.072Z,99293.19
2022-09-03T18:24:43.492Z,99296.47
2022-09-03T18:27:33.550Z,99292.59
2022-09-03T18:35:53.685Z,99305.56
2022-09-03T18:38:44.161Z,99312.31
2022-09-03T18:41:56.077Z,99313.66
2022-09-03T18:45:11.924Z,99316.72
2022-09-03T18:48:15.278Z,99330.69
2022-09-03T18:51:10.159Z,99327.78
2022-09-03T18:54:07.781Z,99331.81
2022-09-03T18:56:58.783Z,99328.47
2022-09-03T19:00:14.537Z,99326.16
2022-09-03T19:03:11.386Z,99332.06
2022-09-03T19:06:06.172Z,99337.16
2022-09-03T19:08:59.895Z,99338.47
2022-09-03T19:11:53.521Z,99333.41
2022-09-03T19:14:53.533Z,99343.53
2022-09-03T19:17:47.957Z,99339.84
2022-09-03T19:20:40.473Z,99351.56
2022-09-03T19:23:26.198Z,99348.94
2022-09-03T19:26:19.615Z,99350.03
2022-09-03T19:29:10.788Z,99345.50
2022-09-03T19:32:04.387Z,99361.25
2022-09-03T19:35:11.100Z,99359.72
2022-09-03T19:38:06.383Z,99361.09
2022-09-03T19:41:06.171Z,99366.13
2022-09-03T19:44:04.170Z,99370.69
2022-09-03T19:46:58.146Z,99386.13
2022-09-03T19:49:57.331Z,99382.94
2022-09-03T19:52:49.484Z,99389.66
2022-09-03T19:55:40.695Z,99394.72
2022-09-03T19:58:42.663Z,99388.06
2022-09-03T20:01:31.815Z,99387.03
2022-09-03T20:04:23.171Z,99381.69
2022-09-03T20:07:08.900Z,99388.38
2022-09-03T20:10:00.272Z,99387.28
2022-09-03T20:15:04.606Z,99386.78
2022-09-03T20:17:44.032Z,99383.84
2022-09-03T20:20:18.735Z,99392.09
2022-09-03T20:22:59.209Z,99392.09
2022-09-03T20:25:50.938Z,99397.16
2022-09-03T20:28:33.044Z,99397.41
2022-09-03T20:31:07.252Z,99401.13
2022-09-03T20:33:56.832Z,99409.91
2022-09-03T20:36:35.086Z,99402.97
2022-09-03T20:39:23.995Z,99407.78
2022-09-03T20:41:59.301Z,99408.03
2022-09-03T20:44:48.225Z,99408.03
2022-09-03T20:47:45.130Z,99412.84
2022-09-03T20:50:24.992Z,99408.28
2022-09-03T20:53:05.646Z,99414.16
2022-09-03T20:55:42.703Z,99412.03
2022-09-03T20:58:16.499Z,99411.75
2022-09-03T21:00:52.096Z,99413.88
2022-09-03T21:03:22.931Z,99414.94
2022-09-03T21:06:12.247Z,99416.78
2022-09-03T21:08:57.412Z,99429.31
2022-09-03T21:11:36.541Z,99423.72
2022-09-03T21:14:18.546Z,99427.41
2022-09-03T21:19:37.742Z,99421.56
2022-09-03T21:22:18.301Z,99426.84
2022-09-03T21:24:51.372Z,99427.91
2022-09-03T21:27:24.240Z,99421.00
2022-09-03T21:30:01.142Z,99428.19
2022-09-03T21:32:39.897Z,99431.88
2022-09-03T21:35:16.674Z,99434.53
2022-09-03T21:37:53.502Z,99444.66
2022-09-03T21:40:24.461Z,99446.47
2022-09-03T21:43:00.452Z,99443.53
2022-09-03T21:45:35.048Z,99454.69
2022-09-03T21:48:10.011Z,99451.75
2022-09-03T21:53:28.171Z,99453.88
2022-09-03T21:56:22.806Z,99457.34
2022-09-03T21:59:08.890Z,99459.16
2022-09-03T22:01:49.557Z,99464.69
2022-09-03T22:04:17.445Z,99463.03
2022-09-03T22:06:53.711Z,99462.44
2022-09-03T22:09:30.106Z,99471.72
2022-09-03T22:12:04.000Z,99463.22
2022-09-03T22:14:43.192Z,99469.16
2022-09-03T22:17:16.873Z,99465.72
2022-09-03T22:22:22.676Z,99466.19
2022-09-03T22:24:58.865Z,99458.44
2022-09-03T22:27:35.583Z,99456.81
2022-09-03T22:30:07.994Z,99465.88
2022-09-03T22:32:52.644Z,99463.50
2022-09-03T22:35:34.990Z,99468.53
2022-09-03T22:38:27.261Z,99469.59
2022-09-03T22:43:39.231Z,99467.84
2022-09-03T22:46:13.779Z,99466.22
2022-09-03T22:48:55.531Z,99466.44
2022-09-03T22:54:04.132Z,99474.91
2022-09-03T22:56:37.837Z,99469.34
2022-09-03T23:01:44.628Z,99473.56
2022-09-03T23:04:18.288Z,99473.53
2022-09-03T23:09:25.851Z,99474.84
2022-09-03T23:12:00.861Z,99469.72
2022-09-03T23:14:34.357Z,99467.66
2022-09-03T23:17:09.766Z,99476.97
2022-09-03T23:19:41.911Z,99477.03
2022-09-03T23:22:13.572Z,99478.91
2022-09-03T23:24:46.197Z,99481.31
2022-09-03T23:27:19.522Z,99481.53
2022-09-03T23:34:48.100Z,99477.94
2022-09-03T23:40:30.947Z,99485.53
2022-09-03T23:43:27.429Z,99491.88
2022-09-03T23:48:44.631Z,99489.66
2022-09-03T23:56:50.559Z,99491.97
